sensor_id;sensor_type;location;lat;lon;timestamp;P1;durP1;ratioP1;P2;durP2;ratioP2
39620;SDS011;25309;48.686;9.170;2024-01-30T00:00:47;8.90;;;6.13;;
39620;SDS011;25309;48.686;9.170;2024-01-30T00:03:15;10.23;;;6.73;;
39620;SDS011;25309;48.686;9.170;2024-01-30T00:05:42;9.43;;;6.13;;
39620;SDS011;25309;48.686;9.170;2024-01-30T00:08:09;9.37;;;6.30;;
39620;SDS011;25309;48.686;9.170;2024-01-30T00:10:36;9.43;;;6.53;;
39620;SDS011;25309;48.686;9.170;2024-01-30T00:13:03;10.53;;;6.33;;
39620;SDS011;25309;48.686;9.170;2024-01-30T00:15:30;9.47;;;6.13;;
39620;SDS011;25309;48.686;9.170;2024-01-30T00:17:59;8.57;;;6.20;;
39620;SDS011;25309;48.686;9.170;2024-01-30T00:20:26;11.13;;;7.40;;
39620;SDS011;25309;48.686;9.170;2024-01-30T00:22:53;11.93;;;7.30;;
39620;SDS011;25309;48.686;9.170;2024-01-30T00:25:20;15.93;;;9.37;;
39620;SDS011;25309;48.686;9.170;2024-01-30T00:27:47;15.27;;;9.10;;
39620;SDS011;25309;48.686;9.170;2024-01-30T00:30:15;15.80;;;8.93;;
39620;SDS011;25309;48.686;9.170;2024-01-30T00:32:42;15.37;;;9.47;;
39620;SDS011;25309;48.686;9.170;2024-01-30T00:35:10;14.77;;;9.60;;
39620;SDS011;25309;48.686;9.170;2024-01-30T00:37:37;18.73;;;10.33;;
39620;SDS011;25309;48.686;9.170;2024-01-30T00:40:05;18.17;;;10.83;;
39620;SDS011;25309;48.686;9.170;2024-01-30T00:42:33;15.10;;;9.70;;
39620;SDS011;25309;48.686;9.170;2024-01-30T00:45:00;14.03;;;9.10;;
39620;SDS011;25309;48.686;9.170;2024-01-30T00:47:27;13.20;;;8.23;;
39620;SDS011;25309;48.686;9.170;2024-01-30T00:49:55;15.23;;;9.47;;
39620;SDS011;25309;48.686;9.170;2024-01-30T00:52:24;12.47;;;8.50;;
39620;SDS011;25309;48.686;9.170;2024-01-30T00:54:51;17.07;;;9.37;;
39620;SDS011;25309;48.686;9.170;2024-01-30T00:57:18;13.17;;;9.13;;
39620;SDS011;25309;48.686;9.170;2024-01-30T00:59:45;15.60;;;8.90;;
39620;SDS011;25309;48.686;9.170;2024-01-30T01:02:12;13.13;;;8.33;;
39620;SDS011;25309;48.686;9.170;2024-01-30T01:04:40;11.37;;;7.60;;
39620;SDS011;25309;48.686;9.170;2024-01-30T01:07:07;11.03;;;7.50;;
39620;SDS011;25309;48.686;9.170;2024-01-30T01:09:35;11.23;;;7.57;;
39620;SDS011;25309;48.686;9.170;2024-01-30T01:12:03;10.27;;;7.20;;
39620;SDS011;25309;48.686;9.170;2024-01-30T01:14:31;10.60;;;7.03;;
39620;SDS011;25309;48.686;9.170;2024-01-30T01:16:58;9.87;;;6.80;;
39620;SDS011;25309;48.686;9.170;2024-01-30T01:19:24;9.47;;;6.47;;
39620;SDS011;25309;48.686;9.170;2024-01-30T01:21:52;9.00;;;6.00;;
39620;SDS011;25309;48.686;9.170;2024-01-30T01:24:19;8.07;;;5.87;;
39620;SDS011;25309;48.686;9.170;2024-01-30T01:26:47;8.63;;;5.30;;
39620;SDS011;25309;48.686;9.170;2024-01-30T01:29:14;10.13;;;6.60;;
39620;SDS011;25309;48.686;9.170;2024-01-30T01:31:42;9.93;;;6.77;;
39620;SDS011;25309;48.686;9.170;2024-01-30T01:34:12;11.23;;;7.27;;
39620;SDS011;25309;48.686;9.170;2024-01-30T01:36:40;10.17;;;6.67;;
39620;SDS011;25309;48.686;9.170;2024-01-30T01:39:07;8.87;;;6.60;;
39620;SDS011;25309;48.686;9.170;2024-01-30T01:41:34;10.37;;;7.37;;
39620;SDS011;25309;48.686;9.170;2024-01-30T01:44:04;8.90;;;6.80;;
39620;SDS011;25309;48.686;9.170;2024-01-30T01:46:32;8.87;;;6.83;;
39620;SDS011;25309;48.686;9.170;2024-01-30T01:49:00;8.57;;;6.00;;
39620;SDS011;25309;48.686;9.170;2024-01-30T01:51:31;8.37;;;6.10;;
39620;SDS011;25309;48.686;9.170;2024-01-30T01:54:00;7.43;;;5.40;;
39620;SDS011;25309;48.686;9.170;2024-01-30T01:56:29;7.97;;;5.70;;
39620;SDS011;25309;48.686;9.170;2024-01-30T01:58:59;9.77;;;6.13;;
39620;SDS011;25309;48.686;9.170;2024-01-30T02:01:28;8.77;;;5.93;;
39620;SDS011;25309;48.686;9.170;2024-01-30T02:03:55;8.57;;;5.90;;
39620;SDS011;25309;48.686;9.170;2024-01-30T02:06:23;10.00;;;6.70;;
39620;SDS011;25309;48.686;9.170;2024-01-30T02:08:50;9.07;;;5.90;;
39620;SDS011;25309;48.686;9.170;2024-01-30T02:11:17;10.33;;;6.60;;
39620;SDS011;25309;48.686;9.170;2024-01-30T02:13:44;8.37;;;5.80;;
39620;SDS011;25309;48.686;9.170;2024-01-30T02:16:11;8.03;;;5.53;;
39620;SDS011;25309;48.686;9.170;2024-01-30T02:18:40;7.33;;;5.87;;
39620;SDS011;25309;48.686;9.170;2024-01-30T02:21:15;9.97;;;5.97;;
39620;SDS011;25309;48.686;9.170;2024-01-30T02:23:43;9.77;;;6.33;;
39620;SDS011;25309;48.686;9.170;2024-01-30T02:26:10;7.70;;;6.23;;
39620;SDS011;25309;48.686;9.170;2024-01-30T02:28:38;9.73;;;6.07;;
39620;SDS011;25309;48.686;9.170;2024-01-30T02:31:05;8.37;;;5.67;;
39620;SDS011;25309;48.686;9.170;2024-01-30T02:33:32;9.13;;;5.83;;
39620;SDS011;25309;48.686;9.170;2024-01-30T02:35:59;8.07;;;6.23;;
39620;SDS011;25309;48.686;9.170;2024-01-30T02:38:27;9.43;;;6.30;;
39620;SDS011;25309;48.686;9.170;2024-01-30T02:40:55;9.73;;;6.13;;
39620;SDS011;25309;48.686;9.170;2024-01-30T02:43:23;9.63;;;6.50;;
39620;SDS011;25309;48.686;9.170;2024-01-30T02:45:50;10.77;;;6.40;;
39620;SDS011;25309;48.686;9.170;2024-01-30T02:48:17;10.03;;;5.97;;
39620;SDS011;25309;48.686;9.170;2024-01-30T02:50:44;10.27;;;6.10;;
39620;SDS011;25309;48.686;9.170;2024-01-30T02:53:12;8.87;;;6.10;;
39620;SDS011;25309;48.686;9.170;2024-01-30T02:55:41;9.23;;;6.10;;
39620;SDS011;25309;48.686;9.170;2024-01-30T02:58:08;8.60;;;5.80;;
39620;SDS011;25309;48.686;9.170;2024-01-30T03:00:35;10.07;;;6.40;;
39620;SDS011;25309;48.686;9.170;2024-01-30T03:03:02;7.67;;;5.97;;
39620;SDS011;25309;48.686;9.170;2024-01-30T03:05:30;9.53;;;6.43;;
39620;SDS011;25309;48.686;9.170;2024-01-30T03:07:57;7.50;;;5.57;;
39620;SDS011;25309;48.686;9.170;2024-01-30T03:10:24;9.50;;;6.23;;
39620;SDS011;25309;48.686;9.170;2024-01-30T03:12:53;8.53;;;5.50;;
39620;SDS011;25309;48.686;9.170;2024-01-30T03:15:20;8.13;;;5.73;;
39620;SDS011;25309;48.686;9.170;2024-01-30T03:17:47;9.73;;;6.30;;
39620;SDS011;25309;48.686;9.170;2024-01-30T03:20:14;8.80;;;6.07;;
39620;SDS011;25309;48.686;9.170;2024-01-30T03:22:41;9.23;;;5.37;;
39620;SDS011;25309;48.686;9.170;2024-01-30T03:25:08;8.73;;;6.10;;
39620;SDS011;25309;48.686;9.170;2024-01-30T03:27:35;8.50;;;5.80;;
39620;SDS011;25309;48.686;9.170;2024-01-30T03:30:04;9.20;;;5.70;;
39620;SDS011;25309;48.686;9.170;2024-01-30T03:32:32;7.43;;;5.40;;
39620;SDS011;25309;48.686;9.170;2024-01-30T03:34:59;8.03;;;5.43;;
39620;SDS011;25309;48.686;9.170;2024-01-30T03:37:27;7.37;;;5.90;;
39620;SDS011;25309;48.686;9.170;2024-01-30T03:39:54;8.77;;;5.83;;
39620;SDS011;25309;48.686;9.170;2024-01-30T03:42:21;8.10;;;5.73;;
39620;SDS011;25309;48.686;9.170;2024-01-30T03:44:48;10.40;;;5.67;;
39620;SDS011;25309;48.686;9.170;2024-01-30T03:47:21;8.37;;;5.60;;
39620;SDS011;25309;48.686;9.170;2024-01-30T03:49:48;7.77;;;5.73;;
39620;SDS011;25309;48.686;9.170;2024-01-30T03:52:15;8.07;;;5.50;;
39620;SDS011;25309;48.686;9.170;2024-01-30T03:54:42;7.10;;;5.00;;
39620;SDS011;25309;48.686;9.170;2024-01-30T03:57:09;8.00;;;5.00;;
39620;SDS011;25309;48.686;9.170;2024-01-30T03:59:36;6.37;;;4.70;;
39620;SDS011;25309;48.686;9.170;2024-01-30T04:02:03;8.80;;;5.30;;
39620;SDS011;25309;48.686;9.170;2024-01-30T04:04:32;8.07;;;5.30;;
39620;SDS011;25309;48.686;9.170;2024-01-30T04:06:59;8.80;;;5.20;;
39620;SDS011;25309;48.686;9.170;2024-01-30T04:09:26;7.97;;;5.40;;
39620;SDS011;25309;48.686;9.170;2024-01-30T04:11:54;8.77;;;5.63;;
39620;SDS011;25309;48.686;9.170;2024-01-30T04:14:21;7.93;;;5.60;;
39620;SDS011;25309;48.686;9.170;2024-01-30T04:16:49;8.67;;;5.80;;
39620;SDS011;25309;48.686;9.170;2024-01-30T04:19:16;6.83;;;4.90;;
39620;SDS011;25309;48.686;9.170;2024-01-30T04:21:44;7.70;;;5.03;;
39620;SDS011;25309;48.686;9.170;2024-01-30T04:24:11;7.97;;;5.23;;
39620;SDS011;25309;48.686;9.170;2024-01-30T04:26:38;7.23;;;5.07;;
39620;SDS011;25309;48.686;9.170;2024-01-30T04:29:05;8.00;;;4.90;;
39620;SDS011;25309;48.686;9.170;2024-01-30T04:31:32;7.30;;;4.67;;
39620;SDS011;25309;48.686;9.170;2024-01-30T04:33:59;7.40;;;4.80;;
39620;SDS011;25309;48.686;9.170;2024-01-30T04:36:26;7.27;;;4.97;;
39620;SDS011;25309;48.686;9.170;2024-01-30T04:38:54;8.07;;;5.67;;
39620;SDS011;25309;48.686;9.170;2024-01-30T04:41:21;8.57;;;5.47;;
39620;SDS011;25309;48.686;9.170;2024-01-30T04:43:48;7.60;;;4.90;;
39620;SDS011;25309;48.686;9.170;2024-01-30T04:46:15;7.37;;;4.87;;
39620;SDS011;25309;48.686;9.170;2024-01-30T04:48:42;7.87;;;5.33;;
39620;SDS011;25309;48.686;9.170;2024-01-30T04:51:10;6.90;;;4.70;;
39620;SDS011;25309;48.686;9.170;2024-01-30T04:53:36;8.97;;;5.57;;
39620;SDS011;25309;48.686;9.170;2024-01-30T04:56:06;7.70;;;4.70;;
39620;SDS011;25309;48.686;9.170;2024-01-30T04:58:33;9.03;;;4.93;;
39620;SDS011;25309;48.686;9.170;2024-01-30T05:01:00;9.07;;;5.27;;
39620;SDS011;25309;48.686;9.170;2024-01-30T05:03:27;6.43;;;4.70;;
39620;SDS011;25309;48.686;9.170;2024-01-30T05:05:54;6.90;;;4.87;;
39620;SDS011;25309;48.686;9.170;2024-01-30T05:08:21;6.93;;;4.90;;
39620;SDS011;25309;48.686;9.170;2024-01-30T05:10:48;8.63;;;4.97;;
39620;SDS011;25309;48.686;9.170;2024-01-30T05:13:17;6.57;;;5.13;;
39620;SDS011;25309;48.686;9.170;2024-01-30T05:15:44;8.47;;;5.37;;
39620;SDS011;25309;48.686;9.170;2024-01-30T05:18:11;9.27;;;5.77;;
39620;SDS011;25309;48.686;9.170;2024-01-30T05:20:38;9.47;;;4.97;;
39620;SDS011;25309;48.686;9.170;2024-01-30T05:23:05;8.00;;;5.13;;
39620;SDS011;25309;48.686;9.170;2024-01-30T05:25:32;8.37;;;5.07;;
39620;SDS011;25309;48.686;9.170;2024-01-30T05:28:00;9.23;;;5.10;;
39620;SDS011;25309;48.686;9.170;2024-01-30T05:30:28;10.90;;;6.87;;
39620;SDS011;25309;48.686;9.170;2024-01-30T05:32:55;12.27;;;8.63;;
39620;SDS011;25309;48.686;9.170;2024-01-30T05:35:22;9.90;;;6.73;;
39620;SDS011;25309;48.686;9.170;2024-01-30T05:37:49;9.17;;;5.97;;
39620;SDS011;25309;48.686;9.170;2024-01-30T05:40:16;9.47;;;5.97;;
39620;SDS011;25309;48.686;9.170;2024-01-30T05:42:43;7.87;;;5.57;;
39620;SDS011;25309;48.686;9.170;2024-01-30T05:45:11;12.20;;;6.70;;
39620;SDS011;25309;48.686;9.170;2024-01-30T05:47:39;8.70;;;6.40;;
39620;SDS011;25309;48.686;9.170;2024-01-30T05:50:06;9.10;;;5.47;;
39620;SDS011;25309;48.686;9.170;2024-01-30T05:52:34;10.80;;;6.57;;
39620;SDS011;25309;48.686;9.170;2024-01-30T05:55:01;8.70;;;6.00;;
39620;SDS011;25309;48.686;9.170;2024-01-30T05:57:29;8.37;;;5.70;;
39620;SDS011;25309;48.686;9.170;2024-01-30T05:59:56;8.70;;;6.03;;
39620;SDS011;25309;48.686;9.170;2024-01-30T06:02:24;9.73;;;6.03;;
39620;SDS011;25309;48.686;9.170;2024-01-30T06:04:52;7.77;;;5.37;;
39620;SDS011;25309;48.686;9.170;2024-01-30T06:07:19;7.57;;;5.60;;
39620;SDS011;25309;48.686;9.170;2024-01-30T06:09:46;8.50;;;5.13;;
39620;SDS011;25309;48.686;9.170;2024-01-30T06:12:13;8.03;;;5.33;;
39620;SDS011;25309;48.686;9.170;2024-01-30T06:14:40;9.23;;;6.00;;
39620;SDS011;25309;48.686;9.170;2024-01-30T06:17:12;9.50;;;6.17;;
39620;SDS011;25309;48.686;9.170;2024-01-30T06:19:40;9.53;;;5.93;;
39620;SDS011;25309;48.686;9.170;2024-01-30T06:22:09;8.40;;;6.23;;
39620;SDS011;25309;48.686;9.170;2024-01-30T06:24:36;9.60;;;6.40;;
39620;SDS011;25309;48.686;9.170;2024-01-30T06:27:03;10.07;;;6.70;;
39620;SDS011;25309;48.686;9.170;2024-01-30T06:29:30;10.60;;;6.60;;
39620;SDS011;25309;48.686;9.170;2024-01-30T06:31:57;9.37;;;6.37;;
39620;SDS011;25309;48.686;9.170;2024-01-30T06:34:25;10.30;;;6.73;;
39620;SDS011;25309;48.686;9.170;2024-01-30T06:36:52;9.53;;;6.40;;
39620;SDS011;25309;48.686;9.170;2024-01-30T06:39:21;11.33;;;7.23;;
39620;SDS011;25309;48.686;9.170;2024-01-30T06:41:48;11.90;;;7.07;;
39620;SDS011;25309;48.686;9.170;2024-01-30T06:44:15;10.63;;;7.10;;
39620;SDS011;25309;48.686;9.170;2024-01-30T06:46:42;10.77;;;6.67;;
39620;SDS011;25309;48.686;9.170;2024-01-30T06:49:09;12.40;;;7.40;;
39620;SDS011;25309;48.686;9.170;2024-01-30T06:51:36;11.03;;;7.43;;
39620;SDS011;25309;48.686;9.170;2024-01-30T06:54:04;10.13;;;7.23;;
39620;SDS011;25309;48.686;9.170;2024-01-30T06:56:32;14.80;;;10.07;;
39620;SDS011;25309;48.686;9.170;2024-01-30T06:58:59;16.97;;;13.03;;
39620;SDS011;25309;48.686;9.170;2024-01-30T07:01:27;15.93;;;11.80;;
39620;SDS011;25309;48.686;9.170;2024-01-30T07:03:55;15.97;;;10.87;;
39620;SDS011;25309;48.686;9.170;2024-01-30T07:06:22;15.03;;;9.60;;
39620;SDS011;25309;48.686;9.170;2024-01-30T07:08:49;11.57;;;8.60;;
39620;SDS011;25309;48.686;9.170;2024-01-30T07:11:18;12.57;;;7.87;;
39620;SDS011;25309;48.686;9.170;2024-01-30T07:13:46;13.30;;;8.93;;
39620;SDS011;25309;48.686;9.170;2024-01-30T07:16:13;10.83;;;7.83;;
39620;SDS011;25309;48.686;9.170;2024-01-30T07:18:40;11.17;;;7.60;;
39620;SDS011;25309;48.686;9.170;2024-01-30T07:21:08;12.13;;;7.77;;
39620;SDS011;25309;48.686;9.170;2024-01-30T07:23:35;11.93;;;7.67;;
39620;SDS011;25309;48.686;9.170;2024-01-30T07:26:02;13.27;;;9.33;;
39620;SDS011;25309;48.686;9.170;2024-01-30T07:28:29;13.27;;;8.77;;
39620;SDS011;25309;48.686;9.170;2024-01-30T07:30:58;11.80;;;8.07;;
39620;SDS011;25309;48.686;9.170;2024-01-30T07:33:25;13.60;;;8.30;;
39620;SDS011;25309;48.686;9.170;2024-01-30T07:35:52;14.00;;;8.10;;
39620;SDS011;25309;48.686;9.170;2024-01-30T07:38:19;12.97;;;8.63;;
39620;SDS011;25309;48.686;9.170;2024-01-30T07:40:46;11.40;;;7.27;;
39620;SDS011;25309;48.686;9.170;2024-01-30T07:43:13;12.10;;;8.20;;
39620;SDS011;25309;48.686;9.170;2024-01-30T07:45:41;12.40;;;8.50;;
39620;SDS011;25309;48.686;9.170;2024-01-30T07:48:09;11.83;;;7.93;;
39620;SDS011;25309;48.686;9.170;2024-01-30T07:50:36;12.70;;;8.47;;
39620;SDS011;25309;48.686;9.170;2024-01-30T07:53:03;13.30;;;8.80;;
39620;SDS011;25309;48.686;9.170;2024-01-30T07:55:30;12.20;;;8.13;;
39620;SDS011;25309;48.686;9.170;2024-01-30T07:57:59;10.30;;;8.13;;
39620;SDS011;25309;48.686;9.170;2024-01-30T08:00:26;12.13;;;7.83;;
39620;SDS011;25309;48.686;9.170;2024-01-30T08:02:55;13.83;;;8.67;;
39620;SDS011;25309;48.686;9.170;2024-01-30T08:05:25;12.10;;;9.10;;
39620;SDS011;25309;48.686;9.170;2024-01-30T08:07:52;12.50;;;8.23;;
39620;SDS011;25309;48.686;9.170;2024-01-30T08:10:19;11.23;;;8.27;;
39620;SDS011;25309;48.686;9.170;2024-01-30T08:12:46;13.10;;;8.43;;
39620;SDS011;25309;48.686;9.170;2024-01-30T08:15:14;12.17;;;8.33;;
39620;SDS011;25309;48.686;9.170;2024-01-30T08:17:41;12.57;;;8.80;;
39620;SDS011;25309;48.686;9.170;2024-01-30T08:20:08;14.13;;;9.27;;
39620;SDS011;25309;48.686;9.170;2024-01-30T08:22:39;13.70;;;9.20;;
39620;SDS011;25309;48.686;9.170;2024-01-30T08:25:07;14.03;;;9.37;;
39620;SDS011;25309;48.686;9.170;2024-01-30T08:27:34;17.43;;;10.90;;
39620;SDS011;25309;48.686;9.170;2024-01-30T08:30:04;15.77;;;10.97;;
39620;SDS011;25309;48.686;9.170;2024-01-30T08:32:32;14.63;;;10.80;;
39620;SDS011;25309;48.686;9.170;2024-01-30T08:34:59;13.87;;;9.90;;
39620;SDS011;25309;48.686;9.170;2024-01-30T08:37:30;14.47;;;10.10;;
39620;SDS011;25309;48.686;9.170;2024-01-30T08:39:58;15.53;;;9.40;;
39620;SDS011;25309;48.686;9.170;2024-01-30T08:42:26;13.40;;;9.87;;
39620;SDS011;25309;48.686;9.170;2024-01-30T08:44:53;12.90;;;9.40;;
39620;SDS011;25309;48.686;9.170;2024-01-30T08:47:20;12.80;;;8.50;;
39620;SDS011;25309;48.686;9.170;2024-01-30T08:49:47;11.17;;;7.63;;
39620;SDS011;25309;48.686;9.170;2024-01-30T08:52:14;12.13;;;8.87;;
39620;SDS011;25309;48.686;9.170;2024-01-30T08:54:41;9.30;;;7.73;;
39620;SDS011;25309;48.686;9.170;2024-01-30T08:57:10;11.63;;;7.70;;
39620;SDS011;25309;48.686;9.170;2024-01-30T08:59:37;12.50;;;7.93;;
39620;SDS011;25309;48.686;9.170;2024-01-30T09:02:04;11.73;;;8.10;;
39620;SDS011;25309;48.686;9.170;2024-01-30T09:04:38;11.93;;;8.00;;
39620;SDS011;25309;48.686;9.170;2024-01-30T09:07:06;10.73;;;7.80;;
39620;SDS011;25309;48.686;9.170;2024-01-30T09:09:37;11.93;;;8.77;;
39620;SDS011;25309;48.686;9.170;2024-01-30T09:12:06;11.23;;;8.03;;
39620;SDS011;25309;48.686;9.170;2024-01-30T09:14:37;10.00;;;7.90;;
39620;SDS011;25309;48.686;9.170;2024-01-30T09:17:06;9.87;;;7.50;;
39620;SDS011;25309;48.686;9.170;2024-01-30T09:19:34;11.50;;;7.93;;
39620;SDS011;25309;48.686;9.170;2024-01-30T09:22:01;10.67;;;7.73;;
39620;SDS011;25309;48.686;9.170;2024-01-30T09:24:28;10.33;;;8.13;;
39620;SDS011;25309;48.686;9.170;2024-01-30T09:26:55;10.57;;;7.97;;
39620;SDS011;25309;48.686;9.170;2024-01-30T09:29:22;9.20;;;7.70;;
39620;SDS011;25309;48.686;9.170;2024-01-30T09:31:51;12.00;;;7.90;;
39620;SDS011;25309;48.686;9.170;2024-01-30T09:34:18;10.53;;;8.30;;
39620;SDS011;25309;48.686;9.170;2024-01-30T09:36:45;9.83;;;7.93;;
39620;SDS011;25309;48.686;9.170;2024-01-30T09:39:12;11.97;;;9.53;;
39620;SDS011;25309;48.686;9.170;2024-01-30T09:41:42;10.50;;;8.63;;
39620;SDS011;25309;48.686;9.170;2024-01-30T09:44:13;11.23;;;8.57;;
39620;SDS011;25309;48.686;9.170;2024-01-30T09:46:42;16.07;;;8.17;;
39620;SDS011;25309;48.686;9.170;2024-01-30T09:49:10;15.57;;;11.43;;
39620;SDS011;25309;48.686;9.170;2024-01-30T09:51:38;12.70;;;9.10;;
39620;SDS011;25309;48.686;9.170;2024-01-30T09:54:06;12.07;;;7.87;;
39620;SDS011;25309;48.686;9.170;2024-01-30T09:56:36;10.87;;;8.37;;
39620;SDS011;25309;48.686;9.170;2024-01-30T09:59:03;11.83;;;8.70;;
39620;SDS011;25309;48.686;9.170;2024-01-30T10:01:30;11.80;;;9.10;;
39620;SDS011;25309;48.686;9.170;2024-01-30T10:03:58;12.00;;;8.67;;
39620;SDS011;25309;48.686;9.170;2024-01-30T10:06:26;13.47;;;8.70;;
39620;SDS011;25309;48.686;9.170;2024-01-30T10:08:55;11.30;;;8.70;;
39620;SDS011;25309;48.686;9.170;2024-01-30T10:11:22;11.07;;;7.80;;
39620;SDS011;25309;48.686;9.170;2024-01-30T10:13:52;12.67;;;8.87;;
39620;SDS011;25309;48.686;9.170;2024-01-30T10:16:19;13.83;;;8.17;;
39620;SDS011;25309;48.686;9.170;2024-01-30T10:18:46;10.80;;;8.43;;
39620;SDS011;25309;48.686;9.170;2024-01-30T10:21:13;11.87;;;9.03;;
39620;SDS011;25309;48.686;9.170;2024-01-30T10:23:43;12.87;;;9.10;;
39620;SDS011;25309;48.686;9.170;2024-01-30T10:26:10;13.10;;;9.03;;
39620;SDS011;25309;48.686;9.170;2024-01-30T10:28:38;12.50;;;8.50;;
39620;SDS011;25309;48.686;9.170;2024-01-30T10:31:05;14.27;;;7.87;;
39620;SDS011;25309;48.686;9.170;2024-01-30T10:33:33;11.00;;;7.77;;
39620;SDS011;25309;48.686;9.170;2024-01-30T10:36:01;12.27;;;7.40;;
39620;SDS011;25309;48.686;9.170;2024-01-30T10:38:30;11.93;;;8.83;;
39620;SDS011;25309;48.686;9.170;2024-01-30T10:40:59;15.87;;;10.20;;
39620;SDS011;25309;48.686;9.170;2024-01-30T10:43:29;13.33;;;9.47;;
39620;SDS011;25309;48.686;9.170;2024-01-30T10:46:01;12.80;;;8.67;;
39620;SDS011;25309;48.686;9.170;2024-01-30T10:48:36;12.17;;;9.10;;
39620;SDS011;25309;48.686;9.170;2024-01-30T10:51:09;10.83;;;9.47;;
39620;SDS011;25309;48.686;9.170;2024-01-30T10:53:37;12.17;;;8.63;;
39620;SDS011;25309;48.686;9.170;2024-01-30T10:56:07;14.63;;;8.40;;
39620;SDS011;25309;48.686;9.170;2024-01-30T10:58:36;14.33;;;8.87;;
39620;SDS011;25309;48.686;9.170;2024-01-30T11:01:04;15.40;;;8.17;;
39620;SDS011;25309;48.686;9.170;2024-01-30T11:03:32;13.43;;;8.60;;
39620;SDS011;25309;48.686;9.170;2024-01-30T11:06:02;13.50;;;8.57;;
39620;SDS011;25309;48.686;9.170;2024-01-30T11:08:31;11.90;;;8.20;;
39620;SDS011;25309;48.686;9.170;2024-01-30T11:10:59;13.07;;;8.10;;
39620;SDS011;25309;48.686;9.170;2024-01-30T11:13:27;11.53;;;7.97;;
39620;SDS011;25309;48.686;9.170;2024-01-30T11:15:59;11.97;;;7.73;;
39620;SDS011;25309;48.686;9.170;2024-01-30T11:18:28;12.07;;;8.13;;
39620;SDS011;25309;48.686;9.170;2024-01-30T11:20:57;11.37;;;8.17;;
39620;SDS011;25309;48.686;9.170;2024-01-30T11:23:25;11.67;;;8.50;;
39620;SDS011;25309;48.686;9.170;2024-01-30T11:25:53;12.70;;;9.23;;
39620;SDS011;25309;48.686;9.170;2024-01-30T11:28:21;12.87;;;9.73;;
39620;SDS011;25309;48.686;9.170;2024-01-30T11:30:50;11.43;;;9.67;;
39620;SDS011;25309;48.686;9.170;2024-01-30T11:33:27;15.83;;;9.70;;
39620;SDS011;25309;48.686;9.170;2024-01-30T11:36:00;14.00;;;9.40;;
39620;SDS011;25309;48.686;9.170;2024-01-30T11:38:33;12.67;;;8.20;;
39620;SDS011;25309;48.686;9.170;2024-01-30T11:41:00;9.40;;;8.13;;
39620;SDS011;25309;48.686;9.170;2024-01-30T11:43:28;11.13;;;6.93;;
39620;SDS011;25309;48.686;9.170;2024-01-30T11:45:57;8.70;;;5.40;;
39620;SDS011;25309;48.686;9.170;2024-01-30T11:48:25;5.13;;;3.63;;
39620;SDS011;25309;48.686;9.170;2024-01-30T11:50:53;5.13;;;3.00;;
39620;SDS011;25309;48.686;9.170;2024-01-30T11:53:21;3.60;;;2.37;;
39620;SDS011;25309;48.686;9.170;2024-01-30T11:55:51;3.70;;;2.53;;
39620;SDS011;25309;48.686;9.170;2024-01-30T11:58:19;4.00;;;2.47;;
39620;SDS011;25309;48.686;9.170;2024-01-30T12:00:52;3.93;;;2.30;;
39620;SDS011;25309;48.686;9.170;2024-01-30T12:03:22;3.57;;;2.30;;
39620;SDS011;25309;48.686;9.170;2024-01-30T12:05:54;5.37;;;2.47;;
39620;SDS011;25309;48.686;9.170;2024-01-30T12:08:23;4.10;;;2.40;;
39620;SDS011;25309;48.686;9.170;2024-01-30T12:10:55;4.00;;;2.17;;
39620;SDS011;25309;48.686;9.170;2024-01-30T12:13:23;3.57;;;2.20;;
39620;SDS011;25309;48.686;9.170;2024-01-30T12:15:50;3.53;;;2.10;;
39620;SDS011;25309;48.686;9.170;2024-01-30T12:18:18;3.37;;;2.23;;
39620;SDS011;25309;48.686;9.170;2024-01-30T12:20:47;4.67;;;1.90;;
39620;SDS011;25309;48.686;9.170;2024-01-30T12:23:24;5.27;;;2.40;;
39620;SDS011;25309;48.686;9.170;2024-01-30T12:25:52;5.23;;;2.30;;
39620;SDS011;25309;48.686;9.170;2024-01-30T12:28:19;3.57;;;2.20;;
39620;SDS011;25309;48.686;9.170;2024-01-30T12:30:46;5.47;;;3.00;;
39620;SDS011;25309;48.686;9.170;2024-01-30T12:33:15;4.43;;;2.70;;
39620;SDS011;25309;48.686;9.170;2024-01-30T12:35:46;4.37;;;2.60;;
39620;SDS011;25309;48.686;9.170;2024-01-30T12:38:28;2.87;;;2.13;;
39620;SDS011;25309;48.686;9.170;2024-01-30T12:40:55;3.23;;;2.10;;
39620;SDS011;25309;48.686;9.170;2024-01-30T12:43:22;3.60;;;1.90;;
39620;SDS011;25309;48.686;9.170;2024-01-30T12:46:03;3.63;;;2.33;;
39620;SDS011;25309;48.686;9.170;2024-01-30T12:48:31;3.60;;;2.30;;
39620;SDS011;25309;48.686;9.170;2024-01-30T12:50:59;5.03;;;2.47;;
39620;SDS011;25309;48.686;9.170;2024-01-30T12:53:26;2.93;;;2.00;;
39620;SDS011;25309;48.686;9.170;2024-01-30T12:55:53;3.37;;;2.57;;
39620;SDS011;25309;48.686;9.170;2024-01-30T12:58:21;4.87;;;2.50;;
39620;SDS011;25309;48.686;9.170;2024-01-30T13:00:48;5.00;;;2.47;;
39620;SDS011;25309;48.686;9.170;2024-01-30T13:03:15;4.47;;;2.40;;
39620;SDS011;25309;48.686;9.170;2024-01-30T13:05:42;3.80;;;2.70;;
39620;SDS011;25309;48.686;9.170;2024-01-30T13:08:11;5.20;;;2.37;;
39620;SDS011;25309;48.686;9.170;2024-01-30T13:10:38;3.60;;;2.30;;
39620;SDS011;25309;48.686;9.170;2024-01-30T13:13:05;4.57;;;2.03;;
39620;SDS011;25309;48.686;9.170;2024-01-30T13:15:40;3.63;;;2.30;;
39620;SDS011;25309;48.686;9.170;2024-01-30T13:18:07;3.97;;;2.50;;
39620;SDS011;25309;48.686;9.170;2024-01-30T13:20:34;3.63;;;2.20;;
39620;SDS011;25309;48.686;9.170;2024-01-30T13:23:01;3.07;;;2.30;;
39620;SDS011;25309;48.686;9.170;2024-01-30T13:25:29;4.43;;;2.30;;
39620;SDS011;25309;48.686;9.170;2024-01-30T13:27:56;4.17;;;2.47;;
39620;SDS011;25309;48.686;9.170;2024-01-30T13:30:24;3.27;;;2.10;;
39620;SDS011;25309;48.686;9.170;2024-01-30T13:32:51;2.93;;;2.13;;
39620;SDS011;25309;48.686;9.170;2024-01-30T13:35:18;4.40;;;2.40;;
39620;SDS011;25309;48.686;9.170;2024-01-30T13:37:45;3.03;;;2.00;;
39620;SDS011;25309;48.686;9.170;2024-01-30T13:40:14;3.87;;;2.30;;
39620;SDS011;25309;48.686;9.170;2024-01-30T13:42:44;4.17;;;2.60;;
39620;SDS011;25309;48.686;9.170;2024-01-30T13:45:11;3.73;;;2.50;;
39620;SDS011;25309;48.686;9.170;2024-01-30T13:47:38;3.47;;;2.27;;
39620;SDS011;25309;48.686;9.170;2024-01-30T13:50:05;3.80;;;2.33;;
39620;SDS011;25309;48.686;9.170;2024-01-30T13:52:33;4.20;;;2.27;;
39620;SDS011;25309;48.686;9.170;2024-01-30T13:55:10;3.40;;;2.50;;
39620;SDS011;25309;48.686;9.170;2024-01-30T13:57:37;3.70;;;2.40;;
39620;SDS011;25309;48.686;9.170;2024-01-30T14:00:06;4.03;;;2.70;;
39620;SDS011;25309;48.686;9.170;2024-01-30T14:02:40;3.37;;;2.00;;
39620;SDS011;25309;48.686;9.170;2024-01-30T14:05:07;5.00;;;2.60;;
39620;SDS011;25309;48.686;9.170;2024-01-30T14:07:35;3.90;;;2.23;;
39620;SDS011;25309;48.686;9.170;2024-01-30T14:10:03;3.67;;;2.20;;
39620;SDS011;25309;48.686;9.170;2024-01-30T14:12:37;3.40;;;2.10;;
39620;SDS011;25309;48.686;9.170;2024-01-30T14:15:04;4.00;;;2.20;;
39620;SDS011;25309;48.686;9.170;2024-01-30T14:17:46;3.77;;;2.43;;
39620;SDS011;25309;48.686;9.170;2024-01-30T14:20:15;3.10;;;2.23;;
39620;SDS011;25309;48.686;9.170;2024-01-30T14:22:45;4.10;;;2.50;;
39620;SDS011;25309;48.686;9.170;2024-01-30T14:25:12;3.40;;;2.37;;
39620;SDS011;25309;48.686;9.170;2024-01-30T14:27:39;4.40;;;2.30;;
39620;SDS011;25309;48.686;9.170;2024-01-30T14:30:06;4.30;;;2.10;;
39620;SDS011;25309;48.686;9.170;2024-01-30T14:32:36;3.30;;;2.07;;
39620;SDS011;25309;48.686;9.170;2024-01-30T14:35:06;4.40;;;2.37;;
39620;SDS011;25309;48.686;9.170;2024-01-30T14:37:33;4.00;;;3.00;;
39620;SDS011;25309;48.686;9.170;2024-01-30T14:40:00;4.07;;;2.77;;
39620;SDS011;25309;48.686;9.170;2024-01-30T14:42:27;3.57;;;2.43;;
39620;SDS011;25309;48.686;9.170;2024-01-30T14:44:57;4.40;;;2.63;;